Georgia — WDG9270 — position and weather

sailwx.info

Track history (hours):
 
Tides and Currents Weather Stations Pressure Air Temp Water Temp Dewpoint Dewpoint Depression Visibility Wind Speed Wind Dir Waves Ship Positions

Georgia

Owner: savannah bar pilots, inc., savannah, GA. More information available from US FCC via Universal Licensing System and Coast Guard Vessel Documentation Center.

Last reported at 2018-Apr-11 14:42 UTC. Time now 2018-Apr-20 14:12 UTC.
Position N 32°01' W 081°03'.
Warning: this ship's position is 8 days out of date.

Length 19 m; draft 1 m.

Type: Pilot. MMSI: 367586130.

Date/timePositionNaut miles runAvg speedWind from/ knotsBaromVisibWave heightAir tempDewpointWater temp
2018-Apr-11 14:42N 32°01' W 081°03'0 0.0
2018-Apr-11 14:30N 32°01' W 081°03'0 0.0
2018-Apr-11 14:00N 32°01' W 081°03'0 0.0
2018-Apr-11 13:30N 32°01' W 081°03'0 0.0
2018-Apr-11 13:00N 32°01' W 081°03'0 0.8
2018-Apr-11 12:30N 32°02' W 081°03'510.6
2018-Apr-11 12:00N 32°04' W 080°57'3 6.7
2018-Apr-11 11:30N 32°02' W 080°54'0 0.0
2018-Apr-11 11:00N 32°02' W 080°54'0 0.0
2018-Apr-11 10:30N 32°02' W 080°54'0 0.0
2018-Apr-11 09:58N 32°02' W 080°54'1022.1
2018-Apr-11 09:31N 31°58' W 080°43'5 9.7
2018-Apr-11 09:00N 32°01' W 080°48'510.7
2018-Apr-11 08:30N 32°02' W 080°54'1221.5
2018-Apr-11 07:56N 31°57' W 080°41'716.7
2018-Apr-11 07:30N 32°01' W 080°48'2 4.5
2018-Apr-11 07:00N 32°02' W 080°51'1018.4
2018-Apr-11 06:29N 31°57' W 080°41'2 3.2
2018-Apr-11 06:00N 31°58' W 080°42'1121.9
2018-Apr-11 05:30N 32°02' W 080°54'0 0.0
2018-Apr-11 05:00N 32°02' W 080°54'0 0.0
2018-Apr-11 04:30N 32°02' W 080°54'0 0.0
2018-Apr-11 04:00N 32°02' W 080°54'0 0.0
2018-Apr-11 03:30N 32°02' W 080°54'0 0.0
2018-Apr-11 02:59N 32°02' W 080°54'0 0.0
2018-Apr-11 02:30N 32°02' W 080°54'0 0.0
2018-Apr-11 02:00N 32°02' W 080°54'0 0.0
2018-Apr-11 01:30N 32°02' W 080°54'612.2
2018-Apr-11 01:01N 32°00' W 080°47'2 3.3
2018-Apr-11 00:30N 31°59' W 080°46'3 6.7
2018-Apr-11 00:00N 31°57' W 080°43'714.6
2018-Apr-10 23:31N 32°02' W 080°49'4 8.4
2018-Apr-10 23:00N 32°02' W 080°54'0 0.0
2018-Apr-10 22:30N 32°02' W 080°54'1015.2
2018-Apr-10 21:52N 31°59' W 080°43'617.7
2018-Apr-10 21:31N 32°02' W 080°50'4 7.8
2018-Apr-10 21:00N 32°02' W 080°54'0 0.0
2018-Apr-10 20:30N 32°02' W 080°54'0 0.0
2018-Apr-10 20:00N 32°02' W 080°54'0 0.0
2018-Apr-10 19:30N 32°02' W 080°54'0 0.0
2018-Apr-10 19:00N 32°02' W 080°54'0 0.0
2018-Apr-10 18:30N 32°02' W 080°54'0 0.0
2018-Apr-10 18:00N 32°02' W 080°54'0 0.0
2018-Apr-10 17:30N 32°02' W 080°54'0 0.7
2018-Apr-10 17:00N 32°02' W 080°54'1318.7
2018-Apr-10 16:19N 31°57' W 080°40'1 3.5
2018-Apr-10 16:00N 31°57' W 080°41'917.8
2018-Apr-10 15:30N 32°02' W 080°50'4 7.3
2018-Apr-10 15:00N 32°02' W 080°54'3 6.9
2018-Apr-10 14:31N 32°02' W 080°50'714.0
2018-Apr-10 14:00N 31°58' W 080°43'1 1.1
2018-Apr-10 13:30N 31°58' W 080°43'4 7.3
2018-Apr-10 13:00N 31°59' W 080°47'713.2
2018-Apr-10 12:30N 32°02' W 080°54'0 0.7
2018-Apr-10 12:00N 32°02' W 080°54'0 0.0
2018-Apr-10 11:30N 32°02' W 080°54'0 0.0
2018-Apr-10 11:00N 32°02' W 080°54'0 0.0
2018-Apr-10 10:30N 32°02' W 080°54'0 0.0
2018-Apr-10 10:00N 32°02' W 080°54'0 0.0
2018-Apr-10 09:30N 32°02' W 080°54'0 0.0
2018-Apr-10 09:00N 32°02' W 080°54'0 0.0
2018-Apr-10 08:30N 32°02' W 080°54'1016.3
2018-Apr-10 07:55N 31°58' W 080°44'3 8.4
2018-Apr-10 07:30N 31°59' W 080°48'1 1.1
2018-Apr-10 07:00N 31°59' W 080°47'2 3.3
2018-Apr-10 06:27N 31°59' W 080°45'3 6.2
2018-Apr-10 05:58N 31°58' W 080°42'0 0.6
2018-Apr-10 05:19N 31°58' W 080°43'617.8
2018-Apr-10 05:01N 32°01' W 080°48'510.7
2018-Apr-10 04:30N 32°02' W 080°54'0 0.0
2018-Apr-10 04:00N 32°02' W 080°54'0 0.0
2018-Apr-10 03:30N 32°02' W 080°54'0 0.0
2018-Apr-10 03:00N 32°02' W 080°54'0 0.0
2018-Apr-10 02:30N 32°02' W 080°54'0 0.0
2018-Apr-10 02:00N 32°02' W 080°54'917.1
2018-Apr-10 01:30N 31°58' W 080°45'1 1.6
2018-Apr-10 01:00N 31°59' W 080°46'612.8
2018-Apr-10 00:31N 32°02' W 080°52'2 3.2
2018-Apr-10 00:00N 32°02' W 080°54'0 0.0
2018-Apr-09 23:30N 32°02' W 080°54'0 0.0
2018-Apr-09 23:00N 32°02' W 080°54'0 0.0
2018-Apr-09 22:30N 32°02' W 080°54'0 0.0
2018-Apr-09 22:00N 32°02' W 080°54'918.6
2018-Apr-09 21:30N 31°57' W 080°44'2 3.3
2018-Apr-09 21:01N 31°59' W 080°45'3 5.3
2018-Apr-09 20:30N 32°00' W 080°48'5 8.9
2018-Apr-09 19:59N 31°58' W 080°43'4 7.8
2018-Apr-09 19:30N 31°59' W 080°47'0 0.4
2018-Apr-09 19:00N 31°60' W 080°47'0 0.2
2018-Apr-09 18:30N 31°60' W 080°47'0 0.8
2018-Apr-09 18:01N 31°59' W 080°48'612.6
2018-Apr-09 17:30N 31°57' W 080°41'815.3
2018-Apr-09 17:00N 32°01' W 080°48'5 9.8
2018-Apr-09 16:30N 32°02' W 080°54'0 0.0
2018-Apr-09 15:58N 32°02' W 080°54'1120.4
2018-Apr-09 15:27N 31°58' W 080°43'4 7.3
2018-Apr-09 14:58N 31°59' W 080°46'0 0.6
2018-Apr-09 14:30N 31°59' W 080°47'3 5.5
2018-Apr-09 14:00N 31°58' W 080°44'1 2.0
2018-Apr-09 13:29N 31°59' W 080°45'917.8
2018-Apr-09 13:01N 32°02' W 080°54'0 0.0
2018-Apr-09 12:31N 32°02' W 080°54'0 0.0
2018-Apr-09 11:59N 32°02' W 080°54'0 0.0
2018-Apr-09 11:30N 32°02' W 080°54'0 0.0
2018-Apr-09 11:01N 32°02' W 080°54'918.0
2018-Apr-09 10:30N 31°58' W 080°44'4 8.1
2018-Apr-09 09:59N 32°01' W 080°48'3 6.6
2018-Apr-09 09:30N 31°59' W 080°45'0 0.4
2018-Apr-09 08:46N 31°59' W 080°45'519.8
2018-Apr-09 08:30N 32°02' W 080°50'1 1.7
2018-Apr-09 08:01N 32°02' W 080°51'510.6
2018-Apr-09 07:30N 31°59' W 080°46'1 1.7
2018-Apr-09 07:01N 31°59' W 080°45'3 5.6
2018-Apr-09 06:24N 31°57' W 080°41'2 5.0
2018-Apr-09 05:58N 31°58' W 080°43'3 5.9
2018-Apr-09 05:30N 31°59' W 080°46'1 1.1
2018-Apr-09 05:00N 31°59' W 080°47'3 5.0
2018-Apr-09 04:29N 31°58' W 080°44'714.5
2018-Apr-09 04:00N 32°02' W 080°51'3 5.9
2018-Apr-09 03:30N 32°02' W 080°54'0 0.0
2018-Apr-09 03:00N 32°02' W 080°54'0 0.0
2018-Apr-09 02:30N 32°02' W 080°54'1324.1
2018-Apr-09 01:59N 31°57' W 080°40'816.6
2018-Apr-09 01:30N 32°01' W 080°49'5 9.6
2018-Apr-09 01:00N 32°02' W 080°54'0 0.0
2018-Apr-09 00:30N 32°02' W 080°54'0 0.0
2018-Apr-09 00:01N 32°02' W 080°54'0 0.0
2018-Apr-08 23:30N 32°02' W 080°54'0 0.0
2018-Apr-08 23:01N 32°02' W 080°54'3 5.7
2018-Apr-08 22:31N 32°02' W 080°51'5 9.9
2018-Apr-08 22:01N 31°59' W 080°46'713.6
2018-Apr-08 21:31N 32°02' W 080°53'1 1.1
2018-Apr-08 21:00N 32°02' W 080°54'0 0.0
2018-Apr-08 20:30N 32°02' W 080°54'0 0.0
2018-Apr-08 20:01N 32°02' W 080°54'0 0.0
2018-Apr-08 19:30N 32°02' W 080°54'0 0.0
2018-Apr-08 19:01N 32°02' W 080°54'0 0.0
2018-Apr-08 18:29N 32°02' W 080°54'0 0.0
2018-Apr-08 18:00N 32°02' W 080°54'917.8
2018-Apr-08 17:30N 31°59' W 080°45'5 8.2
2018-Apr-08 16:56N 31°57' W 080°40'716.1
2018-Apr-08 16:30N 31°60' W 080°47'612.7
2018-Apr-08 16:00N 32°02' W 080°54'1018.7
2018-Apr-08 15:28N 31°58' W 080°43'4 8.2
2018-Apr-08 15:00N 31°60' W 080°47'1 2.1
2018-Apr-08 14:31N 31°59' W 080°46'510.5
2018-Apr-08 14:00N 31°57' W 080°41'1121.8
2018-Apr-08 13:31N 32°02' W 080°52'1020.6
2018-Apr-08 13:00N 31°58' W 080°40'713.1
2018-Apr-08 12:30N 32°00' W 080°48'611.4
2018-Apr-08 12:00N 32°02' W 080°54'0 0.0
2018-Apr-08 11:30N 32°02' W 080°54'0 0.0
2018-Apr-08 11:00N 32°02' W 080°54'0 0.0
2018-Apr-08 10:30N 32°02' W 080°54'0 0.0
2018-Apr-08 10:00N 32°02' W 080°54'1216.9
2018-Apr-08 09:17N 31°56' W 080°42'515.4
2018-Apr-08 09:00N 31°59' W 080°46'1 2.1
2018-Apr-08 08:30N 31°60' W 080°47'5 9.7
2018-Apr-08 08:01N 32°02' W 080°52'510.3
2018-Apr-08 07:31N 31°60' W 080°47'5 3.7
2018-Apr-08 06:17N 31°57' W 080°42'830.4
2018-Apr-08 06:01N 32°02' W 080°50'11 9.0
2018-Apr-08 04:50N 31°57' W 080°39'619.0
2018-Apr-08 04:30N 31°59' W 080°46'611.5
2018-Apr-08 04:01N 32°02' W 080°52'5 9.4
2018-Apr-08 03:30N 31°60' W 080°47'510.9
2018-Apr-08 03:00N 32°02' W 080°52'2 3.6
2018-Apr-08 02:31N 32°02' W 080°50'814.8
2018-Apr-08 02:00N 31°58' W 080°43'3 6.3
2018-Apr-08 01:30N 31°59' W 080°46'4 8.3
2018-Apr-08 01:00N 32°02' W 080°50'4 7.2
2018-Apr-08 00:30N 32°02' W 080°54'0 0.0
2018-Apr-08 00:00N 32°02' W 080°54'0 0.0
2018-Apr-07 23:30N 32°02' W 080°54'0 0.0
2018-Apr-07 23:00N 32°02' W 080°54'0 0.0
2018-Apr-07 22:30N 32°02' W 080°54'816.2
2018-Apr-07 22:00N 31°59' W 080°45'713.1
2018-Apr-07 21:30N 32°02' W 080°52'2 3.8
2018-Apr-07 21:00N 32°02' W 080°54'0 0.0
2018-Apr-07 20:30N 32°02' W 080°54'0 0.0
2018-Apr-07 20:00N 32°02' W 080°54'2 3.9
2018-Apr-07 19:31N 32°02' W 080°52'1321.9
2018-Apr-07 18:55N 31°57' W 080°38'717.2
2018-Apr-07 18:31N 31°59' W 080°46'2 4.9
2018-Apr-07 18:00N 32°01' W 080°48'1 1.4
2018-Apr-07 17:31N 31°60' W 080°47'0 0.7
2018-Apr-07 17:01N 32°00' W 080°48'4 8.5
2018-Apr-07 16:31N 32°02' W 080°52'2 3.6
2018-Apr-07 16:00N 32°02' W 080°54'0 0.0
2018-Apr-07 15:26N 32°02' W 080°54'0 0.0
2018-Apr-07 15:01N 32°02' W 080°54'0 0.0
2018-Apr-07 14:31N 32°02' W 080°54'0 0.0
2018-Apr-07 14:00N 32°02' W 080°54'714.8
2018-Apr-07 13:30N 31°59' W 080°46'2 3.7
2018-Apr-07 13:01N 32°00' W 080°48'0 0.9
2018-Apr-07 12:30N 32°01' W 080°48'815.5
2018-Apr-07 12:00N 31°57' W 080°40'1224.5
2018-Apr-07 11:31N 32°02' W 080°53'1 1.8
2018-Apr-07 11:00N 32°02' W 080°54'0 0.0
2018-Apr-07 10:30N 32°02' W 080°54'0 0.0
2018-Apr-07 10:00N 32°02' W 080°54'0 0.0
2018-Apr-07 09:30N 32°02' W 080°54'0 0.0
2018-Apr-07 09:00N 32°02' W 080°54'1018.8
2018-Apr-07 08:30N 31°59' W 080°44'0 0.7
2018-Apr-07 07:56N 31°58' W 080°44'921.0
2018-Apr-07 07:30N 32°02' W 080°53'1015.5
2018-Apr-07 06:50N 31°58' W 080°42'1 1.2
2018-Apr-07 05:55N 31°57' W 080°41'512.1
2018-Apr-07 05:31N 31°60' W 080°46'713.6
2018-Apr-07 04:59N 32°02' W 080°54'816.0
2018-Apr-07 04:30N 31°59' W 080°46'3 6.1
2018-Apr-07 04:00N 32°01' W 080°48'510.0
2018-Apr-07 03:30N 32°02' W 080°54'0 0.0
2018-Apr-07 03:00N 32°02' W 080°54'0 0.0
2018-Apr-07 02:30N 32°02' W 080°54'0 0.0
2018-Apr-07 02:00N 32°02' W 080°54'4 7.1
2018-Apr-07 01:30N 32°02' W 080°50'2 4.2
2018-Apr-07 01:00N 32°01' W 080°48'510.6
2018-Apr-07 00:30N 32°02' W 080°54'0 0.0
2018-Apr-07 00:00N 32°02' W 080°54'1019.0
2018-Apr-06 23:30N 31°58' W 080°44'1 2.2
2018-Apr-06 23:01N 31°59' W 080°45'4 7.3
2018-Apr-06 22:30N 32°01' W 080°48'510.2
2018-Apr-06 22:01N 32°02' W 080°54'3 6.0
2018-Apr-06 21:31N 32°02' W 080°51'5 9.1
2018-Apr-06 21:00N 31°59' W 080°47'714.2
2018-Apr-06 20:30N 32°02' W 080°54'0 0.0
2018-Apr-06 20:00N 32°02' W 080°54'0 0.0
2018-Apr-06 19:30N 32°02' W 080°54'0 0.0
2018-Apr-06 18:59N 32°02' W 080°54'0 0.0
2018-Apr-06 18:30N 32°02' W 080°54'0 0.0
2018-Apr-06 18:00N 32°02' W 080°54'3 5.3
2018-Apr-06 17:30N 32°02' W 080°51'510.4
2018-Apr-06 17:00N 31°59' W 080°46'1 1.2
2018-Apr-06 16:31N 31°59' W 080°47'2 3.2
2018-Apr-06 16:00N 31°58' W 080°45'2 4.6
2018-Apr-06 15:31N 31°58' W 080°42'1121.3
2018-Apr-06 15:00N 32°02' W 080°54'0 0.0
2018-Apr-06 14:30N 32°02' W 080°54'0 0.0
2018-Apr-06 13:57N 32°02' W 080°54'0 0.0
2018-Apr-06 13:29N 32°02' W 080°54'3 6.8
2018-Apr-06 13:00N 32°02' W 080°50'1326.2
2018-Apr-06 12:31N 31°54' W 080°38'3 5.6
2018-Apr-06 11:58N 31°57' W 080°40'918.7
2018-Apr-06 11:30N 32°01' W 080°49'5 8.8
2018-Apr-06 10:59N 32°02' W 080°54'0 0.0
2018-Apr-06 10:29N 32°02' W 080°54'0 0.0
2018-Apr-06 10:00N 32°02' W 080°54'0 0.0
2018-Apr-06 09:30N 32°02' W 080°54'0 0.0
2018-Apr-06 09:00N 32°02' W 080°54'0 0.0
2018-Apr-06 08:30N 32°02' W 080°54'0 0.0
2018-Apr-06 08:00N 32°02' W 080°54'0 0.0
2018-Apr-06 07:31N 32°02' W 080°54'1017.7
2018-Apr-06 06:56N 31°58' W 080°43'2 5.6
2018-Apr-06 06:31N 31°59' W 080°46'815.2
2018-Apr-06 06:00N 32°02' W 080°54'0 0.0
2018-Apr-06 05:30N 32°02' W 080°54'715.0
2018-Apr-06 05:01N 31°59' W 080°46'1 2.8
2018-Apr-06 04:30N 31°60' W 080°47'510.7
2018-Apr-06 04:00N 32°02' W 080°53'1 1.7
2018-Apr-06 03:30N 32°02' W 080°54'0 0.0
2018-Apr-06 03:00N 32°02' W 080°54'0 0.0
2018-Apr-06 02:30N 32°02' W 080°54'1020.1
2018-Apr-06 02:01N 31°58' W 080°43'4 7.2
2018-Apr-06 01:30N 31°60' W 080°47'612.9
2018-Apr-06 01:00N 32°02' W 080°54'0 0.0
2018-Apr-06 00:29N 32°02' W 080°54'0 0.0
2018-Apr-06 00:00N 32°02' W 080°54'0 0.0
2018-Apr-05 23:30N 32°02' W 080°54'0 0.0
2018-Apr-05 23:00N 32°02' W 080°54'0 0.0
2018-Apr-05 22:28N 32°02' W 080°54'0 0.0
2018-Apr-05 22:00N 32°02' W 080°54'0 0.0
2018-Apr-05 21:30N 32°02' W 080°54'0 0.0
2018-Apr-05 21:00N 32°02' W 080°54'714.6
2018-Apr-05 20:30N 31°59' W 080°46'4 6.8
2018-Apr-05 19:59N 31°58' W 080°43'4 8.5
2018-Apr-05 19:30N 31°59' W 080°47'1 1.3
2018-Apr-05 19:00N 31°59' W 080°47'5 6.0
2018-Apr-05 18:14N 31°57' W 080°42'2 9.0
2018-Apr-05 18:00N 31°57' W 080°40'612.0
2018-Apr-05 17:30N 31°59' W 080°46'714.3
2018-Apr-05 17:00N 32°02' W 080°54'0 0.0
2018-Apr-05 16:30N 32°02' W 080°54'0 0.0
2018-Apr-05 16:00N 32°02' W 080°54'0 0.0
2018-Apr-05 15:30N 32°02' W 080°54'1322.2
2018-Apr-05 14:56N 31°57' W 080°40'2 2.6
2018-Apr-05 14:15N 31°58' W 080°42'313.4
2018-Apr-05 14:01N 31°59' W 080°46'815.5
2018-Apr-05 13:30N 32°02' W 080°54'0 0.0
2018-Apr-05 13:00N 32°02' W 080°54'0 0.0
2018-Apr-05 12:30N 32°02' W 080°54'1118.7
2018-Apr-05 11:56N 31°58' W 080°42'715.5
2018-Apr-05 11:30N 32°02' W 080°49'0 0.5
2018-Apr-05 11:01N 32°02' W 080°49'4 8.5
2018-Apr-05 10:29N 32°02' W 080°54'0 0.0
2018-Apr-05 10:01N 32°02' W 080°54'917.0
2018-Apr-05 09:30N 31°58' W 080°45'612.3
2018-Apr-05 09:01N 32°02' W 080°50'1 1.3
2018-Apr-05 08:31N 32°02' W 080°51'918.5
2018-Apr-05 08:00N 31°57' W 080°42'815.8
2018-Apr-05 07:31N 32°02' W 080°49'713.9
2018-Apr-05 07:00N 31°57' W 080°43'5 9.1
2018-Apr-05 06:31N 31°60' W 080°47'1 1.5
2018-Apr-05 06:01N 31°59' W 080°46'2 3.4
2018-Apr-05 05:30N 32°01' W 080°48'0 0.9
2018-Apr-05 05:01N 32°00' W 080°48'0 0.6
2018-Apr-05 04:30N 31°60' W 080°47'612.0
2018-Apr-05 04:00N 32°02' W 080°54'2 4.2
2018-Apr-05 03:31N 32°02' W 080°51'811.4
2018-Apr-05 02:48N 31°58' W 080°43'2 8.3
2018-Apr-05 02:30N 31°59' W 080°46'4 5.2
2018-Apr-05 01:49N 31°57' W 080°42'1032.1
2018-Apr-05 01:31N 32°02' W 080°52'1220.8
2018-Apr-05 00:57N 31°56' W 080°40'715.2
2018-Apr-05 00:30N 31°60' W 080°47'713.8
2018-Apr-05 00:00N 32°02' W 080°54'1121.5
2018-Apr-04 23:30N 31°58' W 080°42'1 0.7
2018-Apr-04 22:46N 31°58' W 080°43'831.3
2018-Apr-04 22:31N 32°02' W 080°51'1114.4
2018-Apr-04 21:46N 31°56' W 080°41'622.5
2018-Apr-04 21:31N 31°59' W 080°46'714.6
2018-Apr-04 21:00N 32°02' W 080°54'2 3.5
2018-Apr-04 20:31N 32°02' W 080°52'611.4
2018-Apr-04 20:00N 31°59' W 080°46'612.0
2018-Apr-04 19:30N 32°02' W 080°52'2 3.1
2018-Apr-04 19:00N 32°02' W 080°54'0 0.0
2018-Apr-04 18:30N 32°02' W 080°54'0 0.0
2018-Apr-04 18:00N 32°02' W 080°54'0 0.0
2018-Apr-04 17:29N 32°02' W 080°54'0 0.0
2018-Apr-04 17:00N 32°02' W 080°54'0 0.0
2018-Apr-04 16:30N 32°02' W 080°54'0 0.0
2018-Apr-04 16:00N 32°02' W 080°54'0 0.0
2018-Apr-04 15:30N 32°02' W 080°54'0 0.0
2018-Apr-04 15:00N 32°02' W 080°54'0 0.0
2018-Apr-04 14:30N 32°02' W 080°54'0 0.0
2018-Apr-04 14:00N 32°02' W 080°54'0 0.0
2018-Apr-04 13:30N 32°02' W 080°54'0 0.0
2018-Apr-04 13:00N 32°02' W 080°54'0 0.0
2018-Apr-04 12:30N 32°02' W 080°54'0 0.0
2018-Apr-04 12:00N 32°02' W 080°54'0 0.0
2018-Apr-04 11:30N 32°02' W 080°54'0 0.0
2018-Apr-04 11:00N 32°02' W 080°54'0 0.0
2018-Apr-04 10:30N 32°02' W 080°54'0 0.0
2018-Apr-04 09:57N 32°02' W 080°54'0 0.0
2018-Apr-04 09:30N 32°02' W 080°54'0 0.0
2018-Apr-04 09:00N 32°02' W 080°54'0 0.0
2018-Apr-04 08:31N 32°02' W 080°54'917.7
2018-Apr-04 08:00N 31°59' W 080°44'1 2.1
2018-Apr-04 07:30N 31°59' W 080°46'1 1.7
2018-Apr-04 07:00N 31°59' W 080°45'5 8.0
2018-Apr-04 06:20N 31°57' W 080°40'0 1.0
2018-Apr-04 05:59N 31°57' W 080°40'1123.1
2018-Apr-04 05:31N 32°02' W 080°52'1116.4
2018-Apr-04 04:52N 31°57' W 080°41'925.9
2018-Apr-04 04:30N 32°02' W 080°50'5 9.6
2018-Apr-04 03:59N 31°59' W 080°45'612.2
2018-Apr-04 03:29N 32°02' W 080°51'2 5.1
2018-Apr-04 03:00N 32°02' W 080°54'0 0.0
2018-Apr-04 02:30N 32°02' W 080°54'1019.3
2018-Apr-04 02:00N 31°58' W 080°44'3 6.3
2018-Apr-04 01:27N 31°57' W 080°40'4 8.8
2018-Apr-04 01:00N 31°58' W 080°44'918.4
2018-Apr-04 00:30N 32°02' W 080°54'0 0.0
2018-Apr-04 00:01N 32°02' W 080°54'0 0.0
2018-Apr-03 23:30N 32°02' W 080°54'0 0.0
2018-Apr-03 23:00N 32°02' W 080°54'0 0.0
2018-Apr-03 22:31N 32°02' W 080°54'0 0.0
2018-Apr-03 22:00N 32°02' W 080°54'0 0.0
2018-Apr-03 21:31N 32°02' W 080°54'0 0.0
2018-Apr-03 20:58N 32°02' W 080°54'0 0.0
2018-Apr-03 20:31N 32°02' W 080°54'0 0.0
2018-Apr-03 20:00N 32°02' W 080°54'0 0.0
2018-Apr-03 19:29N 32°02' W 080°54'0 0.0
2018-Apr-03 19:01N 32°02' W 080°54'0 0.0
2018-Apr-03 18:30N 32°02' W 080°54'1018.2
2018-Apr-03 17:58N 31°58' W 080°44'1020.9
2018-Apr-03 17:30N 32°02' W 080°54'0 0.0
2018-Apr-03 16:59N 32°02' W 080°54'0 0.0
2018-Apr-03 16:30N 32°02' W 080°54'0 0.0
2018-Apr-03 16:00N 32°02' W 080°54'0 0.0
2018-Apr-03 15:30N 32°02' W 080°54'0 0.0
2018-Apr-03 15:00N 32°02' W 080°54'0 0.0
2018-Apr-03 14:30N 32°02' W 080°54'712.0
2018-Apr-03 13:55N 31°59' W 080°46'3 4.4
2018-Apr-03 13:16N 31°58' W 080°43'414.2
2018-Apr-03 13:01N 31°60' W 080°47'612.3
2018-Apr-03 12:30N 32°02' W 080°54'0 0.0
2018-Apr-03 11:58N 32°02' W 080°54'2 3.8
2018-Apr-03 11:30N 32°02' W 080°52'1119.3
2018-Apr-03 10:57N 31°57' W 080°41'1228.5
2018-Apr-03 10:30N 32°02' W 080°54'0 0.0
2018-Apr-03 09:58N 32°02' W 080°54'0 0.0
2018-Apr-03 09:30N 32°02' W 080°54'0 0.0
2018-Apr-03 09:00N 32°02' W 080°54'0 0.0
2018-Apr-03 08:30N 32°02' W 080°54'0 0.0
2018-Apr-03 08:00N 32°02' W 080°54'918.6
2018-Apr-03 07:30N 31°58' W 080°44'0 0.8
2018-Apr-03 07:01N 31°59' W 080°44'1 1.1
2018-Apr-03 06:30N 31°59' W 080°45'5 8.1
2018-Apr-03 05:53N 31°56' W 080°39'512.2
2018-Apr-03 05:31N 31°58' W 080°44'918.1
2018-Apr-03 05:00N 32°02' W 080°54'0 0.0
2018-Apr-03 04:30N 32°02' W 080°54'816.1
2018-Apr-03 04:00N 31°59' W 080°45'1 0.9
2018-Apr-03 03:27N 31°59' W 080°45'613.8
2018-Apr-03 03:00N 32°02' W 080°51'1 2.1
2018-Apr-03 02:31N 32°02' W 080°50'510.2
2018-Apr-03 02:00N 31°59' W 080°45'5 8.2
2018-Apr-03 01:26N 31°57' W 080°40'717.0
2018-Apr-03 00:59N 32°00' W 080°48'611.8
2018-Apr-03 00:30N 32°02' W 080°54'0 0.0
2018-Apr-03 00:00N 32°02' W 080°54'612.2
2018-Apr-02 23:30N 31°60' W 080°47'1 2.7
2018-Apr-02 23:01N 32°01' W 080°48'5 9.9
2018-Apr-02 22:30N 32°02' W 080°54'0 0.0
2018-Apr-02 22:00N 32°02' W 080°54'0 0.0
2018-Apr-02 21:30N 32°02' W 080°54'0 0.0
2018-Apr-02 21:00N 32°02' W 080°54'0 0.0
2018-Apr-02 20:30N 32°02' W 080°54'0 0.0
2018-Apr-02 19:58N 32°02' W 080°54'0 0.0
2018-Apr-02 19:29N 32°02' W 080°54'0 0.0
2018-Apr-02 19:00N 32°02' W 080°54'0 0.0
2018-Apr-02 18:30N 32°02' W 080°54'713.3
2018-Apr-02 18:01N 31°60' W 080°47'1 2.4
2018-Apr-02 17:31N 31°59' W 080°46'815.5
2018-Apr-02 17:00N 32°02' W 080°54'0 0.0
2018-Apr-02 16:30N 32°02' W 080°54'3 6.2
2018-Apr-02 16:00N 32°02' W 080°51'1019.5
2018-Apr-02 15:29N 31°58' W 080°40'5 9.4
2018-Apr-02 14:58N 31°59' W 080°45'613.8
2018-Apr-02 14:30N 32°02' W 080°52'2 3.7
2018-Apr-02 14:00N 32°02' W 080°54'0 0.0
2018-Apr-02 13:29N 32°02' W 080°54'0 0.0
2018-Apr-02 13:00N 32°02' W 080°54'1020.1
2018-Apr-02 12:30N 31°58' W 080°43'1 1.1
2018-Apr-02 11:53N 31°58' W 080°43'1026.8
2018-Apr-02 11:30N 32°02' W 080°54'917.2
2018-Apr-02 11:00N 31°58' W 080°45'2 3.6
2018-Apr-02 10:30N 31°58' W 080°43'510.8
2018-Apr-02 10:00N 32°01' W 080°48'510.3
2018-Apr-02 09:30N 32°02' W 080°54'0 0.0
2018-Apr-02 09:00N 32°02' W 080°54'0 0.0
2018-Apr-02 08:30N 32°02' W 080°54'0 0.0
2018-Apr-02 08:00N 32°02' W 080°54'0 0.5
2018-Apr-02 07:30N 32°02' W 080°54'918.3
2018-Apr-02 07:00N 31°58' W 080°44'713.2
2018-Apr-02 06:30N 32°02' W 080°50'3 6.3
2018-Apr-02 06:00N 32°02' W 080°54'815.6
2018-Apr-02 05:30N 31°59' W 080°46'714.5
2018-Apr-02 05:00N 32°02' W 080°54'0 0.9
2018-Apr-02 04:30N 32°02' W 080°54'2 4.5
2018-Apr-02 04:01N 32°02' W 080°52'1122.9
2018-Apr-02 03:31N 31°58' W 080°39'1121.7
2018-Apr-02 03:00N 32°02' W 080°51'510.9
2018-Apr-02 02:30N 31°59' W 080°46'1 1.0
2018-Apr-02 02:00N 31°59' W 080°45'0 0.9
2018-Apr-02 01:30N 31°59' W 080°45'0 0.7
2018-Apr-02 01:00N 31°58' W 080°45'3 5.2
2018-Apr-02 00:31N 31°58' W 080°42'5 9.0
2018-Apr-02 00:00N 31°60' W 080°47'0 0.2
2018-Apr-01 23:31N 31°60' W 080°47'1 1.2
2018-Apr-01 23:00N 31°59' W 080°46'3 6.8
2018-Apr-01 22:30N 31°58' W 080°42'815.7
2018-Apr-01 22:00N 32°02' W 080°50'3 6.8
2018-Apr-01 21:31N 32°02' W 080°54'0 0.0
2018-Apr-01 21:00N 32°02' W 080°54'0 0.0
2018-Apr-01 20:31N 32°02' W 080°54'2 4.0
2018-Apr-01 20:01N 32°02' W 080°52'1019.6
2018-Apr-01 19:30N 31°57' W 080°41'1224.5
2018-Apr-01 19:00N 32°02' W 080°54'0 0.0
2018-Apr-01 18:30N 32°02' W 080°54'0 0.0
2018-Apr-01 18:00N 32°02' W 080°54'0 0.0
2018-Apr-01 17:30N 32°02' W 080°54'816.0
2018-Apr-01 17:01N 31°59' W 080°46'1 1.2
2018-Apr-01 16:31N 31°59' W 080°45'916.6
2018-Apr-01 16:00N 32°02' W 080°54'0 0.0
2018-Apr-01 15:31N 32°02' W 080°54'0 0.0
2018-Apr-01 15:01N 32°02' W 080°54'  
Track history (hours):
 
Tides and Currents Weather Stations Pressure Air Temp Water Temp Dewpoint Dewpoint Depression Visibility Wind Speed Wind Dir Waves Ship Positions

Georgia

Owner: savannah bar pilots, inc., savannah, GA. More information available from US FCC via Universal Licensing System and Coast Guard Vessel Documentation Center.

Last reported at 2018-Apr-11 14:42 UTC. Time now 2018-Apr-20 14:12 UTC.
Position N 32°01' W 081°03'.
Warning: this ship's position is 8 days out of date.

Length 19 m; draft 1 m.

Type: Pilot. MMSI: 367586130.

Date/timePositionNaut miles runAvg speedWind from/ knotsBaromVisibWave heightAir tempDewpointWater temp
2018-Apr-11 14:42N 32°01' W 081°03'0 0.0
2018-Apr-11 14:30N 32°01' W 081°03'0 0.0
2018-Apr-11 14:00N 32°01' W 081°03'0 0.0
2018-Apr-11 13:30N 32°01' W 081°03'0 0.0
2018-Apr-11 13:00N 32°01' W 081°03'0 0.8
2018-Apr-11 12:30N 32°02' W 081°03'510.6
2018-Apr-11 12:00N 32°04' W 080°57'3 6.7
2018-Apr-11 11:30N 32°02' W 080°54'0 0.0
2018-Apr-11 11:00N 32°02' W 080°54'0 0.0
2018-Apr-11 10:30N 32°02' W 080°54'0 0.0
2018-Apr-11 09:58N 32°02' W 080°54'1022.1
2018-Apr-11 09:31N 31°58' W 080°43'5 9.7
2018-Apr-11 09:00N 32°01' W 080°48'510.7
2018-Apr-11 08:30N 32°02' W 080°54'1221.5
2018-Apr-11 07:56N 31°57' W 080°41'716.7
2018-Apr-11 07:30N 32°01' W 080°48'2 4.5
2018-Apr-11 07:00N 32°02' W 080°51'1018.4
2018-Apr-11 06:29N 31°57' W 080°41'2 3.2
2018-Apr-11 06:00N 31°58' W 080°42'1121.9
2018-Apr-11 05:30N 32°02' W 080°54'0 0.0
2018-Apr-11 05:00N 32°02' W 080°54'0 0.0
2018-Apr-11 04:30N 32°02' W 080°54'0 0.0
2018-Apr-11 04:00N 32°02' W 080°54'0 0.0
2018-Apr-11 03:30N 32°02' W 080°54'0 0.0
2018-Apr-11 02:59N 32°02' W 080°54'0 0.0
2018-Apr-11 02:30N 32°02' W 080°54'0 0.0
2018-Apr-11 02:00N 32°02' W 080°54'0 0.0
2018-Apr-11 01:30N 32°02' W 080°54'612.2
2018-Apr-11 01:01N 32°00' W 080°47'2 3.3
2018-Apr-11 00:30N 31°59' W 080°46'3 6.7
2018-Apr-11 00:00N 31°57' W 080°43'714.6
2018-Apr-10 23:31N 32°02' W 080°49'4 8.4
2018-Apr-10 23:00N 32°02' W 080°54'0 0.0
2018-Apr-10 22:30N 32°02' W 080°54'1015.2
2018-Apr-10 21:52N 31°59' W 080°43'617.7
2018-Apr-10 21:31N 32°02' W 080°50'4 7.8
2018-Apr-10 21:00N 32°02' W 080°54'0 0.0
2018-Apr-10 20:30N 32°02' W 080°54'0 0.0
2018-Apr-10 20:00N 32°02' W 080°54'0 0.0
2018-Apr-10 19:30N 32°02' W 080°54'0 0.0
2018-Apr-10 19:00N 32°02' W 080°54'0 0.0
2018-Apr-10 18:30N 32°02' W 080°54'0 0.0
2018-Apr-10 18:00N 32°02' W 080°54'0 0.0
2018-Apr-10 17:30N 32°02' W 080°54'0 0.7
2018-Apr-10 17:00N 32°02' W 080°54'1318.7
2018-Apr-10 16:19N 31°57' W 080°40'1 3.5
2018-Apr-10 16:00N 31°57' W 080°41'917.8
2018-Apr-10 15:30N 32°02' W 080°50'4 7.3
2018-Apr-10 15:00N 32°02' W 080°54'3 6.9
2018-Apr-10 14:31N 32°02' W 080°50'714.0
2018-Apr-10 14:00N 31°58' W 080°43'1 1.1
2018-Apr-10 13:30N 31°58' W 080°43'4 7.3
2018-Apr-10 13:00N 31°59' W 080°47'713.2
2018-Apr-10 12:30N 32°02' W 080°54'0 0.7
2018-Apr-10 12:00N 32°02' W 080°54'0 0.0
2018-Apr-10 11:30N 32°02' W 080°54'0 0.0
2018-Apr-10 11:00N 32°02' W 080°54'0 0.0
2018-Apr-10 10:30N 32°02' W 080°54'0 0.0
2018-Apr-10 10:00N 32°02' W 080°54'0 0.0
2018-Apr-10 09:30N 32°02' W 080°54'0 0.0
2018-Apr-10 09:00N 32°02' W 080°54'0 0.0
2018-Apr-10 08:30N 32°02' W 080°54'1016.3
2018-Apr-10 07:55N 31°58' W 080°44'3 8.4
2018-Apr-10 07:30N 31°59' W 080°48'1 1.1
2018-Apr-10 07:00N 31°59' W 080°47'2 3.3
2018-Apr-10 06:27N 31°59' W 080°45'3 6.2
2018-Apr-10 05:58N 31°58' W 080°42'0 0.6
2018-Apr-10 05:19N 31°58' W 080°43'617.8
2018-Apr-10 05:01N 32°01' W 080°48'510.7
2018-Apr-10 04:30N 32°02' W 080°54'0 0.0
2018-Apr-10 04:00N 32°02' W 080°54'0 0.0
2018-Apr-10 03:30N 32°02' W 080°54'0 0.0
2018-Apr-10 03:00N 32°02' W 080°54'0 0.0
2018-Apr-10 02:30N 32°02' W 080°54'0 0.0
2018-Apr-10 02:00N 32°02' W 080°54'917.1
2018-Apr-10 01:30N 31°58' W 080°45'1 1.6
2018-Apr-10 01:00N 31°59' W 080°46'612.8
2018-Apr-10 00:31N 32°02' W 080°52'2 3.2
2018-Apr-10 00:00N 32°02' W 080°54'0 0.0
2018-Apr-09 23:30N 32°02' W 080°54'0 0.0
2018-Apr-09 23:00N 32°02' W 080°54'0 0.0
2018-Apr-09 22:30N 32°02' W 080°54'0 0.0
2018-Apr-09 22:00N 32°02' W 080°54'918.6
2018-Apr-09 21:30N 31°57' W 080°44'2 3.3
2018-Apr-09 21:01N 31°59' W 080°45'3 5.3
2018-Apr-09 20:30N 32°00' W 080°48'5 8.9
2018-Apr-09 19:59N 31°58' W 080°43'4 7.8
2018-Apr-09 19:30N 31°59' W 080°47'0 0.4
2018-Apr-09 19:00N 31°60' W 080°47'0 0.2
2018-Apr-09 18:30N 31°60' W 080°47'0 0.8
2018-Apr-09 18:01N 31°59' W 080°48'612.6
2018-Apr-09 17:30N 31°57' W 080°41'815.3
2018-Apr-09 17:00N 32°01' W 080°48'5 9.8
2018-Apr-09 16:30N 32°02' W 080°54'0 0.0
2018-Apr-09 15:58N 32°02' W 080°54'1120.4
2018-Apr-09 15:27N 31°58' W 080°43'4 7.3
2018-Apr-09 14:58N 31°59' W 080°46'0 0.6
2018-Apr-09 14:30N 31°59' W 080°47'3 5.5
2018-Apr-09 14:00N 31°58' W 080°44'1 2.0
2018-Apr-09 13:29N 31°59' W 080°45'917.8
2018-Apr-09 13:01N 32°02' W 080°54'0 0.0
2018-Apr-09 12:31N 32°02' W 080°54'0 0.0
2018-Apr-09 11:59N 32°02' W 080°54'0 0.0
2018-Apr-09 11:30N 32°02' W 080°54'0 0.0
2018-Apr-09 11:01N 32°02' W 080°54'918.0
2018-Apr-09 10:30N 31°58' W 080°44'4 8.1
2018-Apr-09 09:59N 32°01' W 080°48'3 6.6
2018-Apr-09 09:30N 31°59' W 080°45'0 0.4
2018-Apr-09 08:46N 31°59' W 080°45'519.8
2018-Apr-09 08:30N 32°02' W 080°50'1 1.7
2018-Apr-09 08:01N 32°02' W 080°51'510.6
2018-Apr-09 07:30N 31°59' W 080°46'1 1.7
2018-Apr-09 07:01N 31°59' W 080°45'3 5.6
2018-Apr-09 06:24N 31°57' W 080°41'2 5.0
2018-Apr-09 05:58N 31°58' W 080°43'3 5.9
2018-Apr-09 05:30N 31°59' W 080°46'1 1.1
2018-Apr-09 05:00N 31°59' W 080°47'3 5.0
2018-Apr-09 04:29N 31°58' W 080°44'714.5
2018-Apr-09 04:00N 32°02' W 080°51'3 5.9
2018-Apr-09 03:30N 32°02' W 080°54'0 0.0
2018-Apr-09 03:00N 32°02' W 080°54'0 0.0
2018-Apr-09 02:30N 32°02' W 080°54'1324.1
2018-Apr-09 01:59N 31°57' W 080°40'816.6
2018-Apr-09 01:30N 32°01' W 080°49'5 9.6
2018-Apr-09 01:00N 32°02' W 080°54'0 0.0
2018-Apr-09 00:30N 32°02' W 080°54'0 0.0
2018-Apr-09 00:01N 32°02' W 080°54'0 0.0
2018-Apr-08 23:30N 32°02' W 080°54'0 0.0
2018-Apr-08 23:01N 32°02' W 080°54'3 5.7
2018-Apr-08 22:31N 32°02' W 080°51'5 9.9
2018-Apr-08 22:01N 31°59' W 080°46'713.6
2018-Apr-08 21:31N 32°02' W 080°53'1 1.1
2018-Apr-08 21:00N 32°02' W 080°54'0 0.0
2018-Apr-08 20:30N 32°02' W 080°54'0 0.0
2018-Apr-08 20:01N 32°02' W 080°54'0 0.0
2018-Apr-08 19:30N 32°02' W 080°54'0 0.0
2018-Apr-08 19:01N 32°02' W 080°54'0 0.0
2018-Apr-08 18:29N 32°02' W 080°54'0 0.0
2018-Apr-08 18:00N 32°02' W 080°54'917.8
2018-Apr-08 17:30N 31°59' W 080°45'5 8.2
2018-Apr-08 16:56N 31°57' W 080°40'716.1
2018-Apr-08 16:30N 31°60' W 080°47'612.7
2018-Apr-08 16:00N 32°02' W 080°54'1018.7
2018-Apr-08 15:28N 31°58' W 080°43'4 8.2
2018-Apr-08 15:00N 31°60' W 080°47'1 2.1
2018-Apr-08 14:31N 31°59' W 080°46'510.5
2018-Apr-08 14:00N 31°57' W 080°41'1121.8
2018-Apr-08 13:31N 32°02' W 080°52'1020.6
2018-Apr-08 13:00N 31°58' W 080°40'713.1
2018-Apr-08 12:30N 32°00' W 080°48'611.4
2018-Apr-08 12:00N 32°02' W 080°54'0 0.0
2018-Apr-08 11:30N 32°02' W 080°54'0 0.0
2018-Apr-08 11:00N 32°02' W 080°54'0 0.0
2018-Apr-08 10:30N 32°02' W 080°54'0 0.0
2018-Apr-08 10:00N 32°02' W 080°54'1216.9
2018-Apr-08 09:17N 31°56' W 080°42'515.4
2018-Apr-08 09:00N 31°59' W 080°46'1 2.1
2018-Apr-08 08:30N 31°60' W 080°47'5 9.7
2018-Apr-08 08:01N 32°02' W 080°52'510.3
2018-Apr-08 07:31N 31°60' W 080°47'5 3.7
2018-Apr-08 06:17N 31°57' W 080°42'830.4
2018-Apr-08 06:01N 32°02' W 080°50'11 9.0
2018-Apr-08 04:50N 31°57' W 080°39'619.0
2018-Apr-08 04:30N 31°59' W 080°46'611.5
2018-Apr-08 04:01N 32°02' W 080°52'5 9.4
2018-Apr-08 03:30N 31°60' W 080°47'510.9
2018-Apr-08 03:00N 32°02' W 080°52'2 3.6
2018-Apr-08 02:31N 32°02' W 080°50'814.8
2018-Apr-08 02:00N 31°58' W 080°43'3 6.3
2018-Apr-08 01:30N 31°59' W 080°46'4 8.3
2018-Apr-08 01:00N 32°02' W 080°50'4 7.2
2018-Apr-08 00:30N 32°02' W 080°54'0 0.0
2018-Apr-08 00:00N 32°02' W 080°54'0 0.0
2018-Apr-07 23:30N 32°02' W 080°54'0 0.0
2018-Apr-07 23:00N 32°02' W 080°54'0 0.0
2018-Apr-07 22:30N 32°02' W 080°54'816.2
2018-Apr-07 22:00N 31°59' W 080°45'713.1
2018-Apr-07 21:30N 32°02' W 080°52'2 3.8
2018-Apr-07 21:00N 32°02' W 080°54'0 0.0
2018-Apr-07 20:30N 32°02' W 080°54'0 0.0
2018-Apr-07 20:00N 32°02' W 080°54'2 3.9
2018-Apr-07 19:31N 32°02' W 080°52'1321.9
2018-Apr-07 18:55N 31°57' W 080°38'717.2
2018-Apr-07 18:31N 31°59' W 080°46'2 4.9
2018-Apr-07 18:00N 32°01' W 080°48'1 1.4
2018-Apr-07 17:31N 31°60' W 080°47'0 0.7
2018-Apr-07 17:01N 32°00' W 080°48'4 8.5
2018-Apr-07 16:31N 32°02' W 080°52'2 3.6
2018-Apr-07 16:00N 32°02' W 080°54'0 0.0
2018-Apr-07 15:26N 32°02' W 080°54'0 0.0
2018-Apr-07 15:01N 32°02' W 080°54'0 0.0
2018-Apr-07 14:31N 32°02' W 080°54'0 0.0
2018-Apr-07 14:00N 32°02' W 080°54'714.8
2018-Apr-07 13:30N 31°59' W 080°46'2 3.7
2018-Apr-07 13:01N 32°00' W 080°48'0 0.9
2018-Apr-07 12:30N 32°01' W 080°48'815.5
2018-Apr-07 12:00N 31°57' W 080°40'1224.5
2018-Apr-07 11:31N 32°02' W 080°53'1 1.8
2018-Apr-07 11:00N 32°02' W 080°54'0 0.0
2018-Apr-07 10:30N 32°02' W 080°54'0 0.0
2018-Apr-07 10:00N 32°02' W 080°54'0 0.0
2018-Apr-07 09:30N 32°02' W 080°54'0 0.0
2018-Apr-07 09:00N 32°02' W 080°54'1018.8
2018-Apr-07 08:30N 31°59' W 080°44'0 0.7
2018-Apr-07 07:56N 31°58' W 080°44'921.0
2018-Apr-07 07:30N 32°02' W 080°53'1015.5
2018-Apr-07 06:50N 31°58' W 080°42'1 1.2
2018-Apr-07 05:55N 31°57' W 080°41'512.1
2018-Apr-07 05:31N 31°60' W 080°46'713.6
2018-Apr-07 04:59N 32°02' W 080°54'816.0
2018-Apr-07 04:30N 31°59' W 080°46'3 6.1
2018-Apr-07 04:00N 32°01' W 080°48'510.0
2018-Apr-07 03:30N 32°02' W 080°54'0 0.0
2018-Apr-07 03:00N 32°02' W 080°54'0 0.0
2018-Apr-07 02:30N 32°02' W 080°54'0 0.0
2018-Apr-07 02:00N 32°02' W 080°54'4 7.1
2018-Apr-07 01:30N 32°02' W 080°50'2 4.2
2018-Apr-07 01:00N 32°01' W 080°48'510.6
2018-Apr-07 00:30N 32°02' W 080°54'0 0.0
2018-Apr-07 00:00N 32°02' W 080°54'1019.0
2018-Apr-06 23:30N 31°58' W 080°44'1 2.2
2018-Apr-06 23:01N 31°59' W 080°45'4 7.3
2018-Apr-06 22:30N 32°01' W 080°48'510.2
2018-Apr-06 22:01N 32°02' W 080°54'3 6.0
2018-Apr-06 21:31N 32°02' W 080°51'5 9.1
2018-Apr-06 21:00N 31°59' W 080°47'714.2
2018-Apr-06 20:30N 32°02' W 080°54'0 0.0
2018-Apr-06 20:00N 32°02' W 080°54'0 0.0
2018-Apr-06 19:30N 32°02' W 080°54'0 0.0
2018-Apr-06 18:59N 32°02' W 080°54'0 0.0
2018-Apr-06 18:30N 32°02' W 080°54'0 0.0
2018-Apr-06 18:00N 32°02' W 080°54'3 5.3
2018-Apr-06 17:30N 32°02' W 080°51'510.4
2018-Apr-06 17:00N 31°59' W 080°46'1 1.2
2018-Apr-06 16:31N 31°59' W 080°47'2 3.2
2018-Apr-06 16:00N 31°58' W 080°45'2 4.6
2018-Apr-06 15:31N 31°58' W 080°42'1121.3
2018-Apr-06 15:00N 32°02' W 080°54'0 0.0
2018-Apr-06 14:30N 32°02' W 080°54'0 0.0
2018-Apr-06 13:57N 32°02' W 080°54'0 0.0
2018-Apr-06 13:29N 32°02' W 080°54'3 6.8
2018-Apr-06 13:00N 32°02' W 080°50'1326.2
2018-Apr-06 12:31N 31°54' W 080°38'3 5.6
2018-Apr-06 11:58N 31°57' W 080°40'918.7
2018-Apr-06 11:30N 32°01' W 080°49'5 8.8
2018-Apr-06 10:59N 32°02' W 080°54'0 0.0
2018-Apr-06 10:29N 32°02' W 080°54'0 0.0
2018-Apr-06 10:00N 32°02' W 080°54'0 0.0
2018-Apr-06 09:30N 32°02' W 080°54'0 0.0
2018-Apr-06 09:00N 32°02' W 080°54'0 0.0
2018-Apr-06 08:30N 32°02' W 080°54'0 0.0
2018-Apr-06 08:00N 32°02' W 080°54'0 0.0
2018-Apr-06 07:31N 32°02' W 080°54'1017.7
2018-Apr-06 06:56N 31°58' W 080°43'2 5.6
2018-Apr-06 06:31N 31°59' W 080°46'815.2
2018-Apr-06 06:00N 32°02' W 080°54'0 0.0
2018-Apr-06 05:30N 32°02' W 080°54'715.0
2018-Apr-06 05:01N 31°59' W 080°46'1 2.8
2018-Apr-06 04:30N 31°60' W 080°47'510.7
2018-Apr-06 04:00N 32°02' W 080°53'1 1.7
2018-Apr-06 03:30N 32°02' W 080°54'0 0.0
2018-Apr-06 03:00N 32°02' W 080°54'0 0.0
2018-Apr-06 02:30N 32°02' W 080°54'1020.1
2018-Apr-06 02:01N 31°58' W 080°43'4 7.2
2018-Apr-06 01:30N 31°60' W 080°47'612.9
2018-Apr-06 01:00N 32°02' W 080°54'0 0.0
2018-Apr-06 00:29N 32°02' W 080°54'0 0.0
2018-Apr-06 00:00N 32°02' W 080°54'0 0.0
2018-Apr-05 23:30N 32°02' W 080°54'0 0.0
2018-Apr-05 23:00N 32°02' W 080°54'0 0.0
2018-Apr-05 22:28N 32°02' W 080°54'0 0.0
2018-Apr-05 22:00N 32°02' W 080°54'0 0.0
2018-Apr-05 21:30N 32°02' W 080°54'0 0.0
2018-Apr-05 21:00N 32°02' W 080°54'714.6
2018-Apr-05 20:30N 31°59' W 080°46'4 6.8
2018-Apr-05 19:59N 31°58' W 080°43'4 8.5
2018-Apr-05 19:30N 31°59' W 080°47'1 1.3
2018-Apr-05 19:00N 31°59' W 080°47'5 6.0
2018-Apr-05 18:14N 31°57' W 080°42'2 9.0
2018-Apr-05 18:00N 31°57' W 080°40'612.0
2018-Apr-05 17:30N 31°59' W 080°46'714.3
2018-Apr-05 17:00N 32°02' W 080°54'0 0.0
2018-Apr-05 16:30N 32°02' W 080°54'0 0.0
2018-Apr-05 16:00N 32°02' W 080°54'0 0.0
2018-Apr-05 15:30N 32°02' W 080°54'1322.2
2018-Apr-05 14:56N 31°57' W 080°40'2 2.6
2018-Apr-05 14:15N 31°58' W 080°42'313.4
2018-Apr-05 14:01N 31°59' W 080°46'815.5
2018-Apr-05 13:30N 32°02' W 080°54'0 0.0
2018-Apr-05 13:00N 32°02' W 080°54'0 0.0
2018-Apr-05 12:30N 32°02' W 080°54'1118.7
2018-Apr-05 11:56N 31°58' W 080°42'715.5
2018-Apr-05 11:30N 32°02' W 080°49'0 0.5
2018-Apr-05 11:01N 32°02' W 080°49'4 8.5
2018-Apr-05 10:29N 32°02' W 080°54'0 0.0
2018-Apr-05 10:01N 32°02' W 080°54'917.0
2018-Apr-05 09:30N 31°58' W 080°45'612.3
2018-Apr-05 09:01N 32°02' W 080°50'1 1.3
2018-Apr-05 08:31N 32°02' W 080°51'918.5
2018-Apr-05 08:00N 31°57' W 080°42'815.8
2018-Apr-05 07:31N 32°02' W 080°49'713.9
2018-Apr-05 07:00N 31°57' W 080°43'5 9.1
2018-Apr-05 06:31N 31°60' W 080°47'1 1.5
2018-Apr-05 06:01N 31°59' W 080°46'2 3.4
2018-Apr-05 05:30N 32°01' W 080°48'0 0.9
2018-Apr-05 05:01N 32°00' W 080°48'0 0.6
2018-Apr-05 04:30N 31°60' W 080°47'612.0
2018-Apr-05 04:00N 32°02' W 080°54'2 4.2
2018-Apr-05 03:31N 32°02' W 080°51'811.4
2018-Apr-05 02:48N 31°58' W 080°43'2 8.3
2018-Apr-05 02:30N 31°59' W 080°46'4 5.2
2018-Apr-05 01:49N 31°57' W 080°42'1032.1
2018-Apr-05 01:31N 32°02' W 080°52'1220.8
2018-Apr-05 00:57N 31°56' W 080°40'715.2
2018-Apr-05 00:30N 31°60' W 080°47'713.8
2018-Apr-05 00:00N 32°02' W 080°54'1121.5
2018-Apr-04 23:30N 31°58' W 080°42'1 0.7
2018-Apr-04 22:46N 31°58' W 080°43'831.3
2018-Apr-04 22:31N 32°02' W 080°51'1114.4
2018-Apr-04 21:46N 31°56' W 080°41'622.5
2018-Apr-04 21:31N 31°59' W 080°46'714.6
2018-Apr-04 21:00N 32°02' W 080°54'2 3.5
2018-Apr-04 20:31N 32°02' W 080°52'611.4
2018-Apr-04 20:00N 31°59' W 080°46'612.0
2018-Apr-04 19:30N 32°02' W 080°52'2 3.1
2018-Apr-04 19:00N 32°02' W 080°54'0 0.0
2018-Apr-04 18:30N 32°02' W 080°54'0 0.0
2018-Apr-04 18:00N 32°02' W 080°54'0 0.0
2018-Apr-04 17:29N 32°02' W 080°54'0 0.0
2018-Apr-04 17:00N 32°02' W 080°54'0 0.0
2018-Apr-04 16:30N 32°02' W 080°54'0 0.0
2018-Apr-04 16:00N 32°02' W 080°54'0 0.0
2018-Apr-04 15:30N 32°02' W 080°54'0 0.0
2018-Apr-04 15:00N 32°02' W 080°54'0 0.0
2018-Apr-04 14:30N 32°02' W 080°54'0 0.0
2018-Apr-04 14:00N 32°02' W 080°54'0 0.0
2018-Apr-04 13:30N 32°02' W 080°54'0 0.0
2018-Apr-04 13:00N 32°02' W 080°54'0 0.0
2018-Apr-04 12:30N 32°02' W 080°54'0 0.0
2018-Apr-04 12:00N 32°02' W 080°54'0 0.0
2018-Apr-04 11:30N 32°02' W 080°54'0 0.0
2018-Apr-04 11:00N 32°02' W 080°54'0 0.0
2018-Apr-04 10:30N 32°02' W 080°54'0 0.0
2018-Apr-04 09:57N 32°02' W 080°54'0 0.0
2018-Apr-04 09:30N 32°02' W 080°54'0 0.0
2018-Apr-04 09:00N 32°02' W 080°54'0 0.0
2018-Apr-04 08:31N 32°02' W 080°54'917.7
2018-Apr-04 08:00N 31°59' W 080°44'1 2.1
2018-Apr-04 07:30N 31°59' W 080°46'1 1.7
2018-Apr-04 07:00N 31°59' W 080°45'5 8.0
2018-Apr-04 06:20N 31°57' W 080°40'0 1.0
2018-Apr-04 05:59N 31°57' W 080°40'1123.1
2018-Apr-04 05:31N 32°02' W 080°52'1116.4
2018-Apr-04 04:52N 31°57' W 080°41'925.9
2018-Apr-04 04:30N 32°02' W 080°50'5 9.6
2018-Apr-04 03:59N 31°59' W 080°45'612.2
2018-Apr-04 03:29N 32°02' W 080°51'2 5.1
2018-Apr-04 03:00N 32°02' W 080°54'0 0.0
2018-Apr-04 02:30N 32°02' W 080°54'1019.3
2018-Apr-04 02:00N 31°58' W 080°44'3 6.3
2018-Apr-04 01:27N 31°57' W 080°40'4 8.8
2018-Apr-04 01:00N 31°58' W 080°44'918.4
2018-Apr-04 00:30N 32°02' W 080°54'0 0.0
2018-Apr-04 00:01N 32°02' W 080°54'0 0.0
2018-Apr-03 23:30N 32°02' W 080°54'0 0.0
2018-Apr-03 23:00N 32°02' W 080°54'0 0.0
2018-Apr-03 22:31N 32°02' W 080°54'0 0.0
2018-Apr-03 22:00N 32°02' W 080°54'0 0.0
2018-Apr-03 21:31N 32°02' W 080°54'0 0.0
2018-Apr-03 20:58N 32°02' W 080°54'0 0.0
2018-Apr-03 20:31N 32°02' W 080°54'0 0.0
2018-Apr-03 20:00N 32°02' W 080°54'0 0.0
2018-Apr-03 19:29N 32°02' W 080°54'0 0.0
2018-Apr-03 19:01N 32°02' W 080°54'0 0.0
2018-Apr-03 18:30N 32°02' W 080°54'1018.2
2018-Apr-03 17:58N 31°58' W 080°44'1020.9
2018-Apr-03 17:30N 32°02' W 080°54'0 0.0
2018-Apr-03 16:59N 32°02' W 080°54'0 0.0
2018-Apr-03 16:30N 32°02' W 080°54'0 0.0
2018-Apr-03 16:00N 32°02' W 080°54'0 0.0
2018-Apr-03 15:30N 32°02' W 080°54'0 0.0
2018-Apr-03 15:00N 32°02' W 080°54'0 0.0
2018-Apr-03 14:30N 32°02' W 080°54'712.0
2018-Apr-03 13:55N 31°59' W 080°46'3 4.4
2018-Apr-03 13:16N 31°58' W 080°43'414.2
2018-Apr-03 13:01N 31°60' W 080°47'612.3
2018-Apr-03 12:30N 32°02' W 080°54'0 0.0
2018-Apr-03 11:58N 32°02' W 080°54'2 3.8
2018-Apr-03 11:30N 32°02' W 080°52'1119.3
2018-Apr-03 10:57N 31°57' W 080°41'1228.5
2018-Apr-03 10:30N 32°02' W 080°54'0 0.0
2018-Apr-03 09:58N 32°02' W 080°54'0 0.0
2018-Apr-03 09:30N 32°02' W 080°54'0 0.0
2018-Apr-03 09:00N 32°02' W 080°54'0 0.0
2018-Apr-03 08:30N 32°02' W 080°54'0 0.0
2018-Apr-03 08:00N 32°02' W 080°54'918.6
2018-Apr-03 07:30N 31°58' W 080°44'0 0.8
2018-Apr-03 07:01N 31°59' W 080°44'1 1.1
2018-Apr-03 06:30N 31°59' W 080°45'5 8.1
2018-Apr-03 05:53N 31°56' W 080°39'512.2
2018-Apr-03 05:31N 31°58' W 080°44'918.1
2018-Apr-03 05:00N 32°02' W 080°54'0 0.0
2018-Apr-03 04:30N 32°02' W 080°54'816.1
2018-Apr-03 04:00N 31°59' W 080°45'1 0.9
2018-Apr-03 03:27N 31°59' W 080°45'613.8
2018-Apr-03 03:00N 32°02' W 080°51'1 2.1
2018-Apr-03 02:31N 32°02' W 080°50'510.2
2018-Apr-03 02:00N 31°59' W 080°45'5 8.2
2018-Apr-03 01:26N 31°57' W 080°40'717.0
2018-Apr-03 00:59N 32°00' W 080°48'611.8
2018-Apr-03 00:30N 32°02' W 080°54'0 0.0
2018-Apr-03 00:00N 32°02' W 080°54'612.2
2018-Apr-02 23:30N 31°60' W 080°47'1 2.7
2018-Apr-02 23:01N 32°01' W 080°48'5 9.9
2018-Apr-02 22:30N 32°02' W 080°54'0 0.0
2018-Apr-02 22:00N 32°02' W 080°54'0 0.0
2018-Apr-02 21:30N 32°02' W 080°54'0 0.0
2018-Apr-02 21:00N 32°02' W 080°54'0 0.0
2018-Apr-02 20:30N 32°02' W 080°54'0 0.0
2018-Apr-02 19:58N 32°02' W 080°54'0 0.0
2018-Apr-02 19:29N 32°02' W 080°54'0 0.0
2018-Apr-02 19:00N 32°02' W 080°54'0 0.0
2018-Apr-02 18:30N 32°02' W 080°54'713.3
2018-Apr-02 18:01N 31°60' W 080°47'1 2.4
2018-Apr-02 17:31N 31°59' W 080°46'815.5
2018-Apr-02 17:00N 32°02' W 080°54'0 0.0
2018-Apr-02 16:30N 32°02' W 080°54'3 6.2
2018-Apr-02 16:00N 32°02' W 080°51'1019.5
2018-Apr-02 15:29N 31°58' W 080°40'5 9.4
2018-Apr-02 14:58N 31°59' W 080°45'613.8
2018-Apr-02 14:30N 32°02' W 080°52'2 3.7
2018-Apr-02 14:00N 32°02' W 080°54'0 0.0
2018-Apr-02 13:29N 32°02' W 080°54'0 0.0
2018-Apr-02 13:00N 32°02' W 080°54'1020.1
2018-Apr-02 12:30N 31°58' W 080°43'1 1.1
2018-Apr-02 11:53N 31°58' W 080°43'1026.8
2018-Apr-02 11:30N 32°02' W 080°54'917.2
2018-Apr-02 11:00N 31°58' W 080°45'2 3.6
2018-Apr-02 10:30N 31°58' W 080°43'510.8
2018-Apr-02 10:00N 32°01' W 080°48'510.3
2018-Apr-02 09:30N 32°02' W 080°54'0 0.0
2018-Apr-02 09:00N 32°02' W 080°54'0 0.0
2018-Apr-02 08:30N 32°02' W 080°54'0 0.0
2018-Apr-02 08:00N 32°02' W 080°54'0 0.5
2018-Apr-02 07:30N 32°02' W 080°54'918.3
2018-Apr-02 07:00N 31°58' W 080°44'713.2
2018-Apr-02 06:30N 32°02' W 080°50'3 6.3
2018-Apr-02 06:00N 32°02' W 080°54'815.6
2018-Apr-02 05:30N 31°59' W 080°46'714.5
2018-Apr-02 05:00N 32°02' W 080°54'0 0.9
2018-Apr-02 04:30N 32°02' W 080°54'2 4.5
2018-Apr-02 04:01N 32°02' W 080°52'1122.9
2018-Apr-02 03:31N 31°58' W 080°39'1121.7
2018-Apr-02 03:00N 32°02' W 080°51'510.9
2018-Apr-02 02:30N 31°59' W 080°46'1 1.0
2018-Apr-02 02:00N 31°59' W 080°45'0 0.9
2018-Apr-02 01:30N 31°59' W 080°45'0 0.7
2018-Apr-02 01:00N 31°58' W 080°45'3 5.2
2018-Apr-02 00:31N 31°58' W 080°42'5 9.0
2018-Apr-02 00:00N 31°60' W 080°47'0 0.2
2018-Apr-01 23:31N 31°60' W 080°47'1 1.2
2018-Apr-01 23:00N 31°59' W 080°46'3 6.8
2018-Apr-01 22:30N 31°58' W 080°42'815.7
2018-Apr-01 22:00N 32°02' W 080°50'3 6.8
2018-Apr-01 21:31N 32°02' W 080°54'0 0.0
2018-Apr-01 21:00N 32°02' W 080°54'0 0.0
2018-Apr-01 20:31N 32°02' W 080°54'2 4.0
2018-Apr-01 20:01N 32°02' W 080°52'1019.6
2018-Apr-01 19:30N 31°57' W 080°41'1224.5
2018-Apr-01 19:00N 32°02' W 080°54'0 0.0
2018-Apr-01 18:30N 32°02' W 080°54'0 0.0
2018-Apr-01 18:00N 32°02' W 080°54'0 0.0
2018-Apr-01 17:30N 32°02' W 080°54'816.0
2018-Apr-01 17:01N 31°59' W 080°46'1 1.2
2018-Apr-01 16:31N 31°59' W 080°45'916.6
2018-Apr-01 16:00N 32°02' W 080°54'0 0.0
2018-Apr-01 15:31N 32°02' W 080°54'0 0.0
2018-Apr-01 15:01N 32°02' W 080°54'  

Dump ship's entire track history